createdAt,value
2023-01-20T00:01:12.234Z,6.30
2023-01-20T00:03:40.664Z,6.03
2023-01-20T00:06:08.753Z,6.07
2023-01-20T00:08:35.933Z,6.47
2023-01-20T00:11:07.040Z,5.95
2023-01-20T00:13:37.780Z,5.95
2023-01-20T00:16:08.019Z,5.63
2023-01-20T00:18:35.608Z,6.63
2023-01-20T00:21:07.594Z,5.65
2023-01-20T00:23:35.034Z,6.00
2023-01-20T00:26:19.977Z,6.18
2023-01-20T00:28:48.115Z,5.80
2023-01-20T00:31:21.036Z,6.10
2023-01-20T00:33:49.731Z,6.15
2023-01-20T00:36:18.513Z,6.72
2023-01-20T00:38:46.671Z,5.93
2023-01-20T00:41:14.495Z,6.55
2023-01-20T00:43:41.500Z,7.22
2023-01-20T00:46:09.583Z,8.68
2023-01-20T00:48:37.111Z,8.35
2023-01-20T00:51:06.113Z,8.98
2023-01-20T00:53:33.428Z,10.90
2023-01-20T00:56:00.719Z,9.40
2023-01-20T00:58:28.426Z,9.90
2023-01-20T01:00:56.266Z,9.95
2023-01-20T01:03:23.451Z,10.65
2023-01-20T01:05:50.808Z,10.63
2023-01-20T01:08:17.837Z,10.52
2023-01-20T01:10:44.858Z,10.20
2023-01-20T01:13:11.907Z,10.00
2023-01-20T01:15:38.903Z,11.68
2023-01-20T01:18:05.930Z,10.73
2023-01-20T01:20:32.984Z,12.95
2023-01-20T01:23:00.134Z,12.15
2023-01-20T01:25:27.142Z,14.48
2023-01-20T01:27:54.195Z,13.13
2023-01-20T01:30:21.295Z,14.10
2023-01-20T01:32:48.283Z,14.40
2023-01-20T01:35:15.710Z,13.95
2023-01-20T01:37:43.175Z,14.77
2023-01-20T01:40:11.292Z,15.25
2023-01-20T01:42:38.315Z,14.77
2023-01-20T01:45:20.407Z,14.82
2023-01-20T01:47:56.409Z,14.95
2023-01-20T01:50:38.467Z,15.07
2023-01-20T01:53:07.766Z,14.68
2023-01-20T01:55:39.737Z,15.95
2023-01-20T01:58:10.240Z,15.25
2023-01-20T02:00:38.933Z,17.40
2023-01-20T02:03:06.735Z,17.52
2023-01-20T02:05:36.458Z,16.33
2023-01-20T02:08:04.113Z,17.42
2023-01-20T02:10:31.552Z,16.52
2023-01-20T02:13:00.149Z,16.50
2023-01-20T02:15:50.034Z,17.70
2023-01-20T02:18:33.936Z,15.95
2023-01-20T02:24:02.424Z,15.27
2023-01-20T02:26:52.787Z,17.80
2023-01-20T02:29:56.771Z,18.40
2023-01-20T02:32:41.897Z,16.58
2023-01-20T02:35:20.516Z,17.00
2023-01-20T02:37:53.025Z,18.15
2023-01-20T02:40:22.793Z,19.00
2023-01-20T02:43:11.175Z,19.23
2023-01-20T02:45:47.921Z,18.17
2023-01-20T02:48:47.025Z,18.35
2023-01-20T02:51:25.174Z,17.75
2023-01-20T02:54:08.095Z,21.10
2023-01-20T02:56:36.593Z,20.33
2023-01-20T02:59:10.141Z,17.63
2023-01-20T03:01:43.302Z,19.48
2023-01-20T03:04:13.837Z,19.80
2023-01-20T03:06:47.195Z,20.45
2023-01-20T03:09:18.604Z,20.48
2023-01-20T03:11:53.182Z,20.67
2023-01-20T03:14:20.385Z,19.63
2023-01-20T03:16:48.789Z,19.65
2023-01-20T03:19:20.326Z,22.13
2023-01-20T03:21:48.545Z,22.27
2023-01-20T03:24:15.698Z,22.75
2023-01-20T03:26:42.753Z,20.83
2023-01-20T03:29:15.947Z,23.10
2023-01-20T03:31:51.372Z,24.55
2023-01-20T03:34:22.397Z,22.42
2023-01-20T03:36:50.531Z,22.17
2023-01-20T03:39:18.700Z,23.90
2023-01-20T03:41:52.080Z,25.95
2023-01-20T03:44:26.920Z,24.20
2023-01-20T03:47:05.740Z,24.00
2023-01-20T03:49:35.342Z,23.88
2023-01-20T03:52:15.831Z,25.33
2023-01-20T03:54:52.498Z,25.98
2023-01-20T03:57:25.526Z,24.70
2023-01-20T03:59:54.033Z,27.15
2023-01-20T04:02:23.873Z,25.23
2023-01-20T04:04:51.883Z,26.73
2023-01-20T04:07:23.119Z,26.60
2023-01-20T04:09:54.369Z,27.48
2023-01-20T04:12:21.611Z,28.33
2023-01-20T04:14:48.694Z,26.00
2023-01-20T04:17:16.052Z,25.15
2023-01-20T04:19:43.086Z,28.13
2023-01-20T04:22:17.039Z,24.92
2023-01-20T04:24:52.379Z,24.50
2023-01-20T04:27:19.534Z,25.23
2023-01-20T04:29:46.616Z,25.40
2023-01-20T04:32:13.895Z,26.60
2023-01-20T04:34:41.320Z,27.00
2023-01-20T04:37:08.398Z,23.48
2023-01-20T04:39:35.523Z,25.65
2023-01-20T04:42:04.246Z,24.08
2023-01-20T04:44:31.360Z,24.35
2023-01-20T04:46:58.806Z,26.50
2023-01-20T04:49:26.456Z,25.73
2023-01-20T04:51:53.496Z,24.05
2023-01-20T04:54:20.532Z,24.88
2023-01-20T04:56:50.533Z,24.42
2023-01-20T04:59:17.620Z,23.80
2023-01-20T05:01:44.666Z,24.38
2023-01-20T05:04:11.778Z,25.25
2023-01-20T05:06:42.555Z,25.40
2023-01-20T05:09:15.710Z,24.02
2023-01-20T05:11:43.884Z,23.23
2023-01-20T05:14:12.540Z,22.73
2023-01-20T05:16:40.040Z,23.30
2023-01-20T05:19:07.076Z,23.50
2023-01-20T05:21:34.189Z,21.98
2023-01-20T05:24:01.198Z,24.92
2023-01-20T05:26:28.557Z,24.40
2023-01-20T05:28:55.642Z,26.75
2023-01-20T05:31:22.825Z,25.73
2023-01-20T05:33:49.896Z,27.33
2023-01-20T05:36:17.143Z,36.75
2023-01-20T05:38:44.343Z,28.52
2023-01-20T05:41:11.602Z,30.10
2023-01-20T05:43:38.640Z,25.27
2023-01-20T05:46:06.588Z,44.97
2023-01-20T05:48:33.699Z,30.10
2023-01-20T05:51:00.827Z,29.77
2023-01-20T05:53:27.949Z,27.90
2023-01-20T05:56:05.550Z,27.17
2023-01-20T05:58:34.563Z,26.85
2023-01-20T06:01:06.936Z,26.35
2023-01-20T06:03:34.427Z,26.83
2023-01-20T06:06:02.704Z,26.50
2023-01-20T06:08:30.298Z,28.27
2023-01-20T06:10:57.370Z,26.42
2023-01-20T06:13:25.144Z,26.25
2023-01-20T06:15:54.010Z,27.65
2023-01-20T06:18:22.489Z,28.02
2023-01-20T06:20:49.866Z,28.73
2023-01-20T06:23:17.103Z,28.00
2023-01-20T06:25:44.295Z,28.15
2023-01-20T06:28:11.463Z,26.17
2023-01-20T06:30:38.746Z,28.02
2023-01-20T06:33:11.037Z,27.77
2023-01-20T06:35:38.364Z,27.80
2023-01-20T06:38:05.688Z,27.75
2023-01-20T06:40:33.077Z,28.23
2023-01-20T06:43:00.149Z,28.15
2023-01-20T06:45:27.305Z,28.88
2023-01-20T06:47:54.467Z,28.80
2023-01-20T06:50:22.039Z,28.20
2023-01-20T06:52:49.171Z,28.80
2023-01-20T06:55:17.175Z,30.15
2023-01-20T06:57:44.397Z,27.55
2023-01-20T07:00:12.032Z,26.55
2023-01-20T07:02:39.304Z,26.73
2023-01-20T07:05:08.213Z,25.65
2023-01-20T07:07:35.340Z,29.13
2023-01-20T07:10:03.661Z,25.20
2023-01-20T07:12:31.282Z,26.83
2023-01-20T07:14:58.575Z,25.38
2023-01-20T07:17:26.237Z,23.67
2023-01-20T07:19:53.351Z,24.42
2023-01-20T07:22:20.464Z,24.45
2023-01-20T07:24:47.583Z,23.25
2023-01-20T07:27:15.233Z,24.42
2023-01-20T07:29:42.436Z,23.10
2023-01-20T07:32:09.524Z,22.38
2023-01-20T07:34:36.591Z,24.05
2023-01-20T07:37:04.089Z,23.95
2023-01-20T07:39:31.922Z,21.45
2023-01-20T07:41:59.089Z,25.55
2023-01-20T07:44:26.510Z,24.58
2023-01-20T07:46:54.950Z,24.60
2023-01-20T07:49:22.073Z,22.50
2023-01-20T07:51:49.253Z,23.25
2023-01-20T07:54:16.416Z,24.17
2023-01-20T07:56:43.516Z,24.20
2023-01-20T07:59:11.824Z,24.95
2023-01-20T08:01:38.971Z,25.80
2023-01-20T08:04:06.143Z,25.67
2023-01-20T08:06:33.180Z,25.15
2023-01-20T08:09:01.949Z,24.98
2023-01-20T08:11:29.538Z,23.58
2023-01-20T08:13:56.958Z,25.58
2023-01-20T08:16:24.080Z,27.90
2023-01-20T08:18:53.865Z,25.27
2023-01-20T08:21:27.063Z,25.27
2023-01-20T08:24:01.059Z,23.40
2023-01-20T08:26:29.739Z,29.77
2023-01-20T08:29:02.670Z,25.40
2023-01-20T08:31:30.030Z,24.35
2023-01-20T08:33:57.285Z,23.45
2023-01-20T08:36:30.278Z,23.60
2023-01-20T08:38:59.613Z,24.35
2023-01-20T08:41:29.598Z,24.75
2023-01-20T08:44:00.085Z,22.77
2023-01-20T08:46:27.956Z,24.55
2023-01-20T08:48:56.084Z,23.85
2023-01-20T08:51:33.016Z,22.90
2023-01-20T08:54:00.850Z,22.25
2023-01-20T08:56:29.093Z,24.60
2023-01-20T08:58:57.670Z,22.80
2023-01-20T09:01:28.079Z,23.73
2023-01-20T09:04:05.436Z,24.42
2023-01-20T09:06:46.094Z,23.88
2023-01-20T09:09:15.165Z,23.52
2023-01-20T09:11:44.818Z,22.77
2023-01-20T09:14:12.068Z,24.40
2023-01-20T09:16:39.105Z,22.63
2023-01-20T09:19:06.333Z,24.38
2023-01-20T09:21:33.622Z,23.40
2023-01-20T09:24:00.827Z,22.90
2023-01-20T09:26:35.680Z,21.98
2023-01-20T09:29:09.591Z,23.65
2023-01-20T09:31:39.906Z,20.73
2023-01-20T09:34:07.200Z,21.50
2023-01-20T09:36:34.285Z,22.15
2023-01-20T09:39:20.098Z,24.27
2023-01-20T09:42:19.709Z,22.85
2023-01-20T09:44:59.238Z,21.92
2023-01-20T09:47:31.315Z,22.77
2023-01-20T09:50:29.457Z,21.17
2023-01-20T09:53:25.875Z,22.00
2023-01-20T09:55:54.831Z,22.30
2023-01-20T09:58:51.771Z,23.17
2023-01-20T10:01:34.335Z,20.77
2023-01-20T10:04:13.503Z,21.30
2023-01-20T10:06:43.492Z,25.25
2023-01-20T10:09:25.002Z,19.92
2023-01-20T10:12:13.191Z,21.83
2023-01-20T10:14:50.925Z,20.38
2023-01-20T10:17:26.009Z,20.83
2023-01-20T10:20:05.198Z,20.30
2023-01-20T10:22:58.273Z,20.40
2023-01-20T10:25:31.705Z,19.02
2023-01-20T10:28:19.183Z,16.80
2023-01-20T10:30:48.003Z,17.60
2023-01-20T10:33:24.155Z,19.10
2023-01-20T10:35:54.999Z,18.13
2023-01-20T10:38:43.125Z,19.10
2023-01-20T10:41:20.275Z,16.00
2023-01-20T10:43:47.958Z,16.00
2023-01-20T10:46:46.647Z,16.38
2023-01-20T10:49:43.337Z,15.27
2023-01-20T10:52:39.326Z,16.05
2023-01-20T10:55:43.771Z,16.65
2023-01-20T10:58:25.230Z,16.00
2023-01-20T11:00:52.364Z,15.38
2023-01-20T11:03:21.710Z,15.02
2023-01-20T11:05:51.132Z,15.35
2023-01-20T11:08:23.996Z,15.52
2023-01-20T11:11:01.083Z,15.60
2023-01-20T11:13:28.165Z,14.73
2023-01-20T11:16:00.911Z,15.50
2023-01-20T11:18:34.683Z,15.10
2023-01-20T11:23:37.742Z,13.07
2023-01-20T11:26:32.980Z,12.65
2023-01-20T11:29:09.068Z,14.65
2023-01-20T11:31:49.671Z,15.10
2023-01-20T11:34:29.132Z,15.68
2023-01-20T11:37:05.053Z,14.85
2023-01-20T11:39:34.165Z,16.17
2023-01-20T11:42:47.107Z,15.98
2023-01-20T11:45:34.840Z,16.23
2023-01-20T11:48:06.673Z,16.25
2023-01-20T11:50:50.618Z,17.85
2023-01-20T11:55:50.587Z,17.67
2023-01-20T11:58:21.064Z,17.88
2023-01-20T12:00:51.070Z,17.67
2023-01-20T12:03:30.185Z,18.38
2023-01-20T12:06:14.825Z,17.95
2023-01-20T12:08:57.460Z,17.20
2023-01-20T12:11:30.578Z,17.10
2023-01-20T12:14:25.797Z,17.35
2023-01-20T12:17:16.293Z,17.00
2023-01-20T12:20:05.127Z,16.17
2023-01-20T12:22:41.244Z,16.75
2023-01-20T12:25:19.926Z,16.67
2023-01-20T12:28:01.246Z,16.20
2023-01-20T12:30:37.559Z,14.32
2023-01-20T12:33:05.634Z,16.75
2023-01-20T12:35:39.192Z,17.33
2023-01-20T12:38:08.366Z,15.23
2023-01-20T12:40:48.919Z,16.02
2023-01-20T12:43:30.326Z,16.48
2023-01-20T12:46:07.976Z,17.55
2023-01-20T12:49:03.007Z,15.85
2023-01-20T12:51:41.694Z,16.55
2023-01-20T12:54:54.206Z,16.35
2023-01-20T12:57:56.009Z,18.63
2023-01-20T13:00:50.875Z,15.05
2023-01-20T13:03:39.476Z,20.25
2023-01-20T13:06:30.836Z,15.40
2023-01-20T13:09:03.867Z,15.20
2023-01-20T13:11:57.507Z,13.93
2023-01-20T13:14:41.180Z,15.23
2023-01-20T13:17:13.811Z,15.35
2023-01-20T13:19:42.889Z,13.20
2023-01-20T13:22:21.096Z,14.85
2023-01-20T13:24:53.999Z,13.93
2023-01-20T13:27:27.744Z,13.90
2023-01-20T13:32:29.651Z,14.00
2023-01-20T13:34:57.975Z,14.05
2023-01-20T13:37:27.764Z,14.57
2023-01-20T13:39:58.609Z,12.07
2023-01-20T13:42:38.535Z,13.68
2023-01-20T13:45:11.432Z,13.90
2023-01-20T13:47:52.437Z,14.43
2023-01-20T13:50:25.051Z,14.65
2023-01-20T13:52:52.284Z,13.95
2023-01-20T13:55:34.260Z,14.82
2023-01-20T13:58:01.350Z,14.23
2023-01-20T14:00:29.735Z,15.05
2023-01-20T14:02:56.841Z,13.85
2023-01-20T14:05:31.747Z,15.60
2023-01-20T14:07:59.602Z,14.55
2023-01-20T14:10:27.197Z,14.80
2023-01-20T14:12:54.320Z,15.95
2023-01-20T14:15:34.813Z,14.63
2023-01-20T14:18:02.472Z,15.18
2023-01-20T14:20:30.676Z,15.48
2023-01-20T14:23:25.209Z,15.00
2023-01-20T14:26:28.830Z,14.55
2023-01-20T14:28:59.390Z,13.83
2023-01-20T14:31:41.966Z,15.25
2023-01-20T14:34:43.011Z,14.02
2023-01-20T14:37:30.804Z,13.70
2023-01-20T14:40:17.887Z,12.73
2023-01-20T14:43:07.821Z,13.30
2023-01-20T14:45:36.952Z,13.73
2023-01-20T14:48:05.138Z,13.95
2023-01-20T14:50:33.637Z,14.18
2023-01-20T14:53:00.951Z,16.05
2023-01-20T14:55:28.992Z,15.98
2023-01-20T14:57:57.045Z,15.18
2023-01-20T15:00:30.301Z,15.75
2023-01-20T15:03:12.082Z,17.73
2023-01-20T15:05:52.555Z,15.25
2023-01-20T15:08:26.744Z,14.80
2023-01-20T15:11:20.175Z,14.80
2023-01-20T15:13:53.857Z,15.55
2023-01-20T15:16:26.725Z,14.50
2023-01-20T15:19:17.582Z,13.73
2023-01-20T15:21:47.209Z,14.30
2023-01-20T15:24:31.622Z,13.48
2023-01-20T15:27:01.469Z,14.15
2023-01-20T15:29:36.570Z,13.98
2023-01-20T15:32:11.953Z,13.70
2023-01-20T15:34:39.161Z,14.40
2023-01-20T15:37:18.474Z,15.00
2023-01-20T15:39:45.542Z,14.27
2023-01-20T15:42:13.202Z,13.63
2023-01-20T15:44:40.271Z,13.82
2023-01-20T15:47:29.171Z,11.93
2023-01-20T15:49:59.176Z,14.00
2023-01-20T15:52:26.551Z,14.80
2023-01-20T15:54:54.034Z,13.40
2023-01-20T15:57:21.039Z,12.90
2023-01-20T15:59:49.924Z,12.93
2023-01-20T16:02:20.041Z,12.32
2023-01-20T16:04:47.256Z,11.40
2023-01-20T16:07:16.978Z,14.43
2023-01-20T16:09:44.862Z,10.40
2023-01-20T16:12:13.129Z,11.93
2023-01-20T16:14:41.246Z,10.98
2023-01-20T16:17:30.643Z,11.82
2023-01-20T16:19:58.341Z,11.27
2023-01-20T16:22:26.103Z,14.32
2023-01-20T16:24:53.259Z,15.95
2023-01-20T16:27:22.472Z,11.90
2023-01-20T16:29:49.984Z,13.05
2023-01-20T16:32:19.100Z,12.60
2023-01-20T16:34:47.412Z,11.95
2023-01-20T16:37:14.749Z,12.35
2023-01-20T16:39:41.838Z,12.65
2023-01-20T16:42:11.515Z,13.18
2023-01-20T16:44:38.945Z,12.07
2023-01-20T16:47:08.142Z,13.75
2023-01-20T16:49:35.269Z,11.38
2023-01-20T16:52:02.411Z,10.75
2023-01-20T16:54:29.428Z,10.43
2023-01-20T16:56:56.475Z,11.55
2023-01-20T16:59:24.027Z,12.63
2023-01-20T17:01:51.119Z,12.82
2023-01-20T17:04:18.214Z,12.75
2023-01-20T17:06:45.391Z,14.45
2023-01-20T17:09:12.462Z,15.25
2023-01-20T17:11:40.452Z,16.45
2023-01-20T17:14:09.337Z,17.27
2023-01-20T17:16:37.479Z,16.33
2023-01-20T17:19:05.476Z,15.75
2023-01-20T17:21:37.132Z,15.43
2023-01-20T17:24:05.180Z,14.43
2023-01-20T17:26:32.701Z,16.98
2023-01-20T17:29:02.738Z,16.05
2023-01-20T17:31:31.863Z,18.60
2023-01-20T17:33:58.975Z,18.63
2023-01-20T17:36:26.400Z,19.13
2023-01-20T17:38:53.740Z,18.80
2023-01-20T17:41:21.047Z,18.45
2023-01-20T17:43:48.220Z,20.02
2023-01-20T17:46:19.530Z,18.45
2023-01-20T17:48:46.977Z,18.98
2023-01-20T17:51:19.318Z,18.40
2023-01-20T17:53:47.290Z,20.83
2023-01-20T17:56:15.668Z,19.23
2023-01-20T17:58:44.666Z,19.15
2023-01-20T18:01:17.705Z,19.10
2023-01-20T18:03:45.900Z,20.13
2023-01-20T18:06:15.402Z,19.52
2023-01-20T18:08:43.533Z,19.77
2023-01-20T18:11:15.263Z,21.10
2023-01-20T18:13:45.562Z,20.83
2023-01-20T18:16:14.830Z,21.58
2023-01-20T18:18:43.824Z,22.33
2023-01-20T18:21:17.299Z,22.02
2023-01-20T18:23:45.371Z,22.70
2023-01-20T18:26:14.501Z,23.60
2023-01-20T18:28:42.925Z,23.38
2023-01-20T18:31:18.735Z,24.92
2023-01-20T18:33:51.256Z,22.75
2023-01-20T18:36:27.132Z,23.50
2023-01-20T18:38:57.575Z,21.08
2023-01-20T18:41:26.728Z,22.92
2023-01-20T18:43:54.219Z,23.65
2023-01-20T18:46:21.591Z,23.35
2023-01-20T18:48:51.843Z,22.23
2023-01-20T18:51:21.045Z,21.58
2023-01-20T18:54:20.817Z,21.67
2023-01-20T18:56:48.222Z,23.27
2023-01-20T18:59:15.340Z,23.55
2023-01-20T19:01:42.881Z,20.77
2023-01-20T19:04:12.455Z,22.13
2023-01-20T19:06:42.166Z,21.33
2023-01-20T19:09:10.493Z,21.50
2023-01-20T19:11:40.528Z,22.20
2023-01-20T19:14:11.366Z,21.98
2023-01-20T19:16:39.303Z,22.55
2023-01-20T19:19:07.311Z,22.05
2023-01-20T19:21:36.312Z,22.17
2023-01-20T19:24:06.048Z,23.98
2023-01-20T19:26:37.810Z,23.20
2023-01-20T19:29:15.853Z,22.13
2023-01-20T19:31:43.119Z,21.75
2023-01-20T19:34:10.610Z,25.05
2023-01-20T19:36:37.954Z,23.02
2023-01-20T19:39:05.793Z,23.10
2023-01-20T19:41:34.251Z,22.50
2023-01-20T19:44:03.205Z,21.90
2023-01-20T19:46:33.683Z,23.13
2023-01-20T19:49:02.244Z,23.02
2023-01-20T19:51:32.065Z,24.05
2023-01-20T19:54:01.432Z,24.08
2023-01-20T19:56:32.595Z,22.85
2023-01-20T19:59:00.859Z,22.38
2023-01-20T20:01:36.892Z,22.13
2023-01-20T20:04:10.526Z,22.40
2023-01-20T20:06:39.429Z,23.33
2023-01-20T20:09:10.842Z,23.70
2023-01-20T20:11:38.488Z,23.48
2023-01-20T20:14:07.498Z,22.65
2023-01-20T20:16:36.495Z,20.75
2023-01-20T20:19:04.812Z,22.27
2023-01-20T20:21:32.022Z,23.27
2023-01-20T20:24:00.435Z,21.70
2023-01-20T20:26:30.714Z,22.38
2023-01-20T20:29:02.160Z,21.15
2023-01-20T20:31:30.074Z,22.00
2023-01-20T20:33:58.765Z,21.02
2023-01-20T20:36:31.059Z,21.48
2023-01-20T20:39:00.094Z,20.70
2023-01-20T20:41:29.063Z,23.27
2023-01-20T20:43:57.114Z,22.55
2023-01-20T20:46:26.029Z,20.85
2023-01-20T20:48:59.403Z,20.02
2023-01-20T20:51:28.555Z,19.88
2023-01-20T20:53:56.609Z,22.00
2023-01-20T20:56:27.751Z,21.63
2023-01-20T20:59:02.009Z,22.08
2023-01-20T21:01:34.149Z,21.08
2023-01-20T21:04:04.346Z,19.33
2023-01-20T21:06:32.713Z,21.05
2023-01-20T21:09:00.483Z,19.98
2023-01-20T21:11:28.425Z,20.88
2023-01-20T21:13:56.379Z,22.75
2023-01-20T21:16:25.071Z,22.23
2023-01-20T21:18:54.592Z,20.50
2023-01-20T21:21:22.392Z,20.67
2023-01-20T21:23:51.822Z,20.30
2023-01-20T21:26:19.833Z,20.48
2023-01-20T21:28:49.289Z,20.02
2023-01-20T21:31:25.163Z,21.25
2023-01-20T21:33:55.092Z,20.35
2023-01-20T21:36:22.471Z,21.45
2023-01-20T21:38:49.764Z,20.38
2023-01-20T21:41:17.812Z,22.63
2023-01-20T21:44:05.792Z,21.15
2023-01-20T21:46:39.232Z,22.85
2023-01-20T21:49:28.832Z,21.45
2023-01-20T21:52:15.417Z,21.48
2023-01-20T21:54:44.790Z,21.95
2023-01-20T21:57:11.940Z,20.92
2023-01-20T21:59:39.315Z,22.48
2023-01-20T22:02:07.467Z,19.52
2023-01-20T22:04:34.643Z,21.15
2023-01-20T22:07:01.820Z,21.67
2023-01-20T22:09:28.957Z,22.15
2023-01-20T22:11:56.258Z,22.40
2023-01-20T22:14:23.409Z,20.98
2023-01-20T22:16:50.479Z,20.45
2023-01-20T22:19:17.802Z,20.65
2023-01-20T22:21:44.950Z,21.40
2023-01-20T22:24:12.173Z,21.77
2023-01-20T22:26:39.755Z,21.20
2023-01-20T22:29:07.259Z,21.92
2023-01-20T22:31:34.495Z,21.05
2023-01-20T22:34:06.202Z,23.52
2023-01-20T22:36:33.969Z,23.55
2023-01-20T22:39:01.976Z,23.05
2023-01-20T22:41:29.114Z,24.27
2023-01-20T22:43:56.630Z,21.58
2023-01-20T22:46:26.256Z,23.63
2023-01-20T22:48:54.430Z,23.77
2023-01-20T22:51:24.514Z,23.83
2023-01-20T22:54:00.258Z,23.00
2023-01-20T22:56:30.625Z,24.70
2023-01-20T22:58:59.416Z,24.05
2023-01-20T23:01:29.964Z,23.20
2023-01-20T23:03:59.343Z,23.90
2023-01-20T23:06:28.356Z,24.33
2023-01-20T23:08:56.276Z,23.25
2023-01-20T23:11:24.054Z,21.75
2023-01-20T23:13:52.193Z,22.75
2023-01-20T23:16:22.452Z,22.95
2023-01-20T23:18:51.082Z,22.95
2023-01-20T23:21:19.926Z,22.23
2023-01-20T23:23:56.340Z,21.10
2023-01-20T23:26:26.403Z,22.13
2023-01-20T23:28:53.890Z,20.65
2023-01-20T23:31:23.574Z,21.05
2023-01-20T23:33:50.734Z,20.67
2023-01-20T23:36:21.794Z,22.17
2023-01-20T23:38:49.080Z,22.33
2023-01-20T23:41:16.369Z,21.67
2023-01-20T23:43:44.213Z,21.85
2023-01-20T23:46:11.824Z,22.50
2023-01-20T23:48:39.228Z,21.73
2023-01-20T23:51:07.123Z,21.73
2023-01-20T23:53:38.255Z,20.98
2023-01-20T23:56:10.376Z,22.13
2023-01-20T23:58:37.436Z,20.23
